Terminal Aerodrome Forecast
Issued by NWS

Home | Current Version | Previous Version | Text Only | Print | Product List | Glossary On
Versions: 1 2 3 4 5 6 7 8 9 10 11 12 13 14 15 16 17 18 19 20 21
000
FTUS45 KTFX 280500
TAFHVR
TAF
KHVR 280520Z 2806/2906 23006KT 1/2SM FZFG BKN003
      TEMPO 2806/2810 5SM BR SCT003
     FM281000 24007KT P6SM VCFG SCT003 SCT200
     FM281700 24015G25KT P6SM SCT120 BKN200
     FM290000 30015G22KT P6SM VCSH SCT015 BKN050
     FM290200 33015KT 3SM -SN BR OVC015=

USA.gov is the U.S. government's official web portal to all federal, state and local government web resources and services.